Time;durP1;ratioP1;P1;durP2;ratioP2;P2;SDS_P1;SDS_P2;PMS_P1;PMS_P2;Temp;Humidity;BMP_temperature;BMP_pressure;BME280_temperature;BME280_humidity;BME280_pressure;Samples;Min_cycle;Max_cycle;Signal;HPM_P1;HPM_P2
2021/05/30 00:00:18;;;;;;;3.13;2.90;;;11.80;99.90;;;;;;494038;241;28296;-73
2021/05/30 00:02:19;;;;;;;4.17;3.37;;;11.70;99.90;;;;;;494046;241;28225;-74
2021/05/30 00:04:21;;;;;;;3.30;3.00;;;11.70;99.90;;;;;;494173;241;28295;-73
2021/05/30 00:06:22;;;;;;;6.20;2.87;;;11.70;99.90;;;;;;494053;241;28524;-73
2021/05/30 00:08:23;;;;;;;3.73;3.37;;;11.60;99.90;;;;;;494063;241;28910;-74
2021/05/30 00:10:25;;;;;;;3.40;3.10;;;11.60;99.90;;;;;;494165;241;28486;-73
2021/05/30 00:12:26;;;;;;;5.53;4.60;;;11.50;99.90;;;;;;494163;241;28686;-73
2021/05/30 00:14:27;;;;;;;6.27;4.37;;;11.60;99.90;;;;;;494173;241;28508;-73
2021/05/30 00:16:28;;;;;;;5.60;3.80;;;11.50;99.90;;;;;;494150;241;28308;-73
2021/05/30 00:18:31;;;;;;;4.60;3.47;;;;;;;;;;494191;241;28304;-73
2021/05/30 00:20:32;;;;;;;3.70;3.40;;;11.40;99.90;;;;;;494175;241;27321;-73
2021/05/30 00:22:33;;;;;;;6.70;3.30;;;11.40;99.90;;;;;;494197;241;28710;-73
2021/05/30 00:24:34;;;;;;;3.60;3.30;;;11.30;99.90;;;;;;494161;241;28654;-73
2021/05/30 00:26:36;;;;;;;7.60;3.87;;;11.30;99.90;;;;;;494071;241;28702;-74
2021/05/30 00:28:37;;;;;;;4.20;3.30;;;11.20;99.90;;;;;;494065;241;28205;-73
2021/05/30 00:30:38;;;;;;;3.87;3.47;;;11.20;99.90;;;;;;494186;241;28207;-73
2021/05/30 00:32:39;;;;;;;4.67;3.70;;;11.20;99.90;;;;;;494170;241;27933;-73
2021/05/30 00:34:41;;;;;;;6.23;3.60;;;11.10;99.90;;;;;;494135;241;28161;-73
2021/05/30 00:36:42;;;;;;;4.60;4.00;;;11.10;99.90;;;;;;494193;241;28550;-73
2021/05/30 00:38:43;;;;;;;3.73;3.43;;;11.10;99.90;;;;;;494135;241;28203;-73
2021/05/30 00:40:44;;;;;;;7.40;4.03;;;11.10;99.90;;;;;;494169;241;28029;-73
2021/05/30 00:42:46;;;;;;;9.93;4.30;;;11.00;99.90;;;;;;494153;241;28038;-73
2021/05/30 00:44:47;;;;;;;3.90;3.47;;;11.00;99.90;;;;;;494118;241;28314;-73
2021/05/30 00:46:48;;;;;;;4.47;4.00;;;10.90;99.90;;;;;;494156;241;28521;-73
2021/05/30 00:48:49;;;;;;;4.03;3.63;;;10.90;99.90;;;;;;493960;241;29019;-73
2021/05/30 00:50:51;;;;;;;3.77;3.47;;;10.90;99.90;;;;;;494060;241;28687;-73
2021/05/30 00:52:52;;;;;;;5.20;4.00;;;10.80;99.90;;;;;;494140;241;28316;-73
2021/05/30 00:54:53;;;;;;;5.00;4.43;;;10.80;99.90;;;;;;494145;241;27987;-73
2021/05/30 00:56:54;;;;;;;4.53;4.03;;;10.80;99.90;;;;;;494030;241;27967;-73
2021/05/30 00:58:56;;;;;;;5.67;4.07;;;10.80;99.90;;;;;;494063;241;27788;-73
2021/05/30 01:00:57;;;;;;;5.20;4.50;;;10.70;99.90;;;;;;494126;241;27979;-73
2021/05/30 01:02:58;;;;;;;5.00;4.20;;;10.70;99.90;;;;;;494173;241;27983;-73
2021/05/30 01:04:59;;;;;;;4.50;4.10;;;10.60;99.90;;;;;;494143;241;28068;-73
2021/05/30 01:07:01;;;;;;;6.37;4.73;;;10.60;99.90;;;;;;494153;241;27814;-73
2021/05/30 01:09:03;;;;;;;4.67;4.07;;;10.50;99.90;;;;;;494032;237;27859;-73
2021/05/30 01:11:05;;;;;;;5.60;4.20;;;10.50;99.90;;;;;;493942;241;28471;-74
2021/05/30 01:13:04;;;;;;;5.10;4.07;;;10.50;99.90;;;;;;493862;241;28399;-73
2021/05/30 01:15:06;;;;;;;6.30;4.80;;;10.50;99.90;;;;;;494062;241;28530;-73
2021/05/30 01:17:07;;;;;;;5.03;4.40;;;10.40;99.90;;;;;;494077;241;28076;-73
2021/05/30 01:19:08;;;;;;;5.10;4.17;;;10.40;99.90;;;;;;494058;241;27990;-73
2021/05/30 01:21:09;;;;;;;7.73;4.80;;;10.30;99.90;;;;;;494097;241;27912;-74
2021/05/30 01:23:11;;;;;;;5.10;4.60;;;10.30;99.90;;;;;;494079;241;27895;-73
2021/05/30 01:25:12;;;;;;;5.73;5.10;;;10.20;99.90;;;;;;494176;241;28101;-73
2021/05/30 01:27:13;;;;;;;5.17;4.67;;;10.30;99.90;;;;;;494098;241;27970;-73
2021/05/30 01:29:14;;;;;;;4.77;4.33;;;10.20;99.90;;;;;;494142;241;28104;-73
2021/05/30 01:31:16;;;;;;;5.53;4.63;;;10.30;99.90;;;;;;494192;241;28096;-74
2021/05/30 01:33:18;;;;;;;6.30;5.00;;;10.20;99.90;;;;;;494219;241;28135;-72
2021/05/30 01:35:18;;;;;;;5.50;4.73;;;10.20;99.90;;;;;;494156;241;28466;-74
2021/05/30 01:37:19;;;;;;;5.93;5.10;;;10.20;99.90;;;;;;494171;241;28486;-72
2021/05/30 01:39:21;;;;;;;6.60;5.00;;;10.20;99.90;;;;;;494080;241;28465;-73
2021/05/30 01:41:22;;;;;;;6.60;5.47;;;10.10;99.90;;;;;;494130;241;27765;-73
2021/05/30 01:43:23;;;;;;;6.50;5.00;;;10.10;99.90;;;;;;494141;241;27952;-73
2021/05/30 01:45:25;;;;;;;8.27;5.37;;;10.10;99.90;;;;;;494078;241;27990;-73
2021/05/30 01:47:26;;;;;;;5.23;4.73;;;10.00;99.90;;;;;;494182;241;27945;-73
2021/05/30 01:49:27;;;;;;;6.47;5.53;;;10.10;99.90;;;;;;494148;241;28073;-73
2021/05/30 01:51:28;;;;;;;6.23;5.60;;;10.10;99.90;;;;;;494093;241;28230;-73
2021/05/30 01:53:38;;;;;;;5.87;5.30;;;10.00;99.90;;;;;;494099;239;28035;-73
2021/05/30 01:57:44;;;;;;;7.97;5.33;;;10.10;99.90;;;;;;494157;241;29084;-73
2021/05/30 01:59:45;;;;;;;5.87;4.93;;;10.00;99.90;;;;;;494172;241;27829;-73
2021/05/30 02:01:47;;;;;;;6.40;5.30;;;10.10;99.90;;;;;;494184;241;28076;-74
2021/05/30 02:03:48;;;;;;;5.60;5.00;;;10.10;99.90;;;;;;494093;241;27753;-73
2021/05/30 02:05:49;;;;;;;5.80;4.87;;;10.20;99.90;;;;;;494072;241;27881;-74
2021/05/30 02:07:50;;;;;;;6.87;5.40;;;10.10;99.90;;;;;;494068;241;28049;-73
2021/05/30 02:09:52;;;;;;;5.70;5.00;;;10.10;99.90;;;;;;494066;241;28061;-73
2021/05/30 02:11:53;;;;;;;6.40;5.20;;;10.10;99.90;;;;;;494042;241;27883;-73
2021/05/30 02:13:54;;;;;;;5.40;4.90;;;10.00;99.90;;;;;;494066;241;27998;-73
2021/05/30 02:15:56;;;;;;;6.37;4.30;;;10.00;99.90;;;;;;494076;241;28169;-73
2021/05/30 02:17:57;;;;;;;7.43;4.77;;;10.00;99.90;;;;;;494192;241;28981;-73
2021/05/30 02:19:58;;;;;;;5.00;4.50;;;10.00;99.90;;;;;;494152;241;28504;-74
2021/05/30 02:22:00;;;;;;;5.50;5.00;;;9.90;99.90;;;;;;494172;241;28424;-74
2021/05/30 02:24:01;;;;;;;6.53;5.50;;;9.90;99.90;;;;;;494185;241;28387;-73
2021/05/30 02:26:02;;;;;;;8.73;6.40;;;9.90;99.90;;;;;;494144;241;27878;-73
2021/05/30 02:28:03;;;;;;;8.67;5.43;;;9.80;99.90;;;;;;494037;241;27934;-73
2021/05/30 02:30:04;;;;;;;8.43;5.50;;;9.70;99.90;;;;;;494071;241;27970;-73
2021/05/30 02:32:06;;;;;;;7.23;5.90;;;9.70;99.90;;;;;;494099;241;27999;-74
2021/05/30 02:34:07;;;;;;;6.00;5.37;;;9.70;99.90;;;;;;494176;241;27813;-73
2021/05/30 02:36:08;;;;;;;7.30;5.40;;;9.70;99.90;;;;;;493958;241;27917;-73
2021/05/30 02:38:09;;;;;;;6.10;5.10;;;9.80;99.90;;;;;;494094;241;27961;-73
2021/05/30 02:40:11;;;;;;;10.23;6.50;;;9.60;99.90;;;;;;494058;241;28060;-73
2021/05/30 02:42:12;;;;;;;6.10;5.50;;;9.70;99.90;;;;;;494063;241;28222;-73
2021/05/30 02:44:13;;;;;;;6.93;6.17;;;9.60;99.90;;;;;;494068;241;27994;-73
2021/05/30 02:46:14;;;;;;;6.47;5.63;;;9.60;99.90;;;;;;494130;241;27871;-73
2021/05/30 02:48:16;;;;;;;9.17;7.30;;;9.70;99.90;;;;;;494105;241;28058;-73
2021/05/30 02:50:17;;;;;;;6.87;5.97;;;9.60;99.90;;;;;;494065;241;28048;-72
2021/05/30 02:52:18;;;;;;;9.67;5.90;;;9.50;99.90;;;;;;494095;241;27777;-73
2021/05/30 02:54:19;;;;;;;6.53;5.60;;;9.50;99.90;;;;;;494086;241;28420;-73
2021/05/30 02:56:21;;;;;;;7.10;5.37;;;9.60;99.90;;;;;;494112;241;28298;-73
2021/05/30 02:58:22;;;;;;;7.00;6.10;;;9.50;99.90;;;;;;494095;241;28257;-73
2021/05/30 03:00:23;;;;;;;8.90;6.63;;;9.50;99.90;;;;;;494098;241;28169;-73
2021/05/30 03:02:24;;;;;;;7.80;5.77;;;9.50;99.90;;;;;;494131;239;28193;-73
2021/05/30 03:04:26;;;;;;;8.10;6.73;;;9.50;99.90;;;;;;494069;241;28482;-73
2021/05/30 03:06:27;;;;;;;7.13;5.60;;;9.40;99.90;;;;;;494184;241;27623;-73
2021/05/30 03:08:28;;;;;;;5.50;5.00;;;9.50;99.90;;;;;;494110;241;28075;-73
2021/05/30 03:10:29;;;;;;;7.20;5.93;;;9.50;99.90;;;;;;494110;241;27621;-73
2021/05/30 03:12:31;;;;;;;10.43;6.90;;;9.40;99.90;;;;;;494016;237;27991;-74
2021/05/30 03:14:32;;;;;;;9.47;6.90;;;9.40;99.90;;;;;;494063;241;27951;-73
2021/05/30 03:16:33;;;;;;;7.20;6.03;;;9.40;99.90;;;;;;494040;237;28011;-73
2021/05/30 03:18:34;;;;;;;11.30;7.10;;;9.40;99.90;;;;;;494058;241;28159;-72
2021/05/30 03:20:36;;;;;;;8.90;6.67;;;9.40;99.90;;;;;;494098;241;27746;-73
2021/05/30 03:22:37;;;;;;;7.33;6.30;;;9.40;99.90;;;;;;494186;237;28336;-74
2021/05/30 03:24:38;;;;;;;17.93;8.20;;;9.40;99.90;;;;;;494129;239;28048;-73
2021/05/30 03:26:39;;;;;;;6.60;5.90;;;9.30;99.90;;;;;;494138;241;27840;-73
2021/05/30 03:28:41;;;;;;;11.67;6.83;;;9.30;99.90;;;;;;494121;241;28269;-72
2021/05/30 03:30:42;;;;;;;7.00;6.20;;;9.30;99.90;;;;;;494124;241;28428;-73
2021/05/30 03:32:43;;;;;;;7.83;7.03;;;9.30;99.90;;;;;;494157;241;28646;-74
2021/05/30 03:34:44;;;;;;;6.97;5.47;;;9.30;99.90;;;;;;494158;241;28139;-73
2021/05/30 03:36:49;;;;;;;7.33;6.00;;;9.30;99.90;;;;;;494135;239;28326;-75
2021/05/30 03:38:48;;;;;;;9.47;7.47;;;9.30;99.90;;;;;;493864;241;27938;-74
2021/05/30 03:40:58;;;;;;;8.27;6.67;;;9.30;99.90;;;;;;494034;241;28509;-73
2021/05/30 03:42:52;;;;;;;8.53;6.30;;;9.20;99.90;;;;;;493194;241;27944;-73
2021/05/30 03:44:51;;;;;;;6.00;5.20;;;9.00;99.90;;;;;;493879;241;27900;-72
2021/05/30 03:46:52;;;;;;;5.20;4.70;;;8.70;99.90;;;;;;493978;241;27967;-73
2021/05/30 03:48:53;;;;;;;5.90;4.37;;;8.50;99.90;;;;;;494056;241;27843;-73
2021/05/30 03:50:54;;;;;;;5.83;5.00;;;8.40;99.90;;;;;;494086;241;27766;-72
2021/05/30 03:52:56;;;;;;;9.43;5.23;;;8.20;99.90;;;;;;494087;241;28057;-73
2021/05/30 03:54:57;;;;;;;5.20;4.70;;;8.20;99.90;;;;;;494050;241;27958;-73
2021/05/30 03:56:58;;;;;;;6.20;5.10;;;8.10;99.90;;;;;;494153;241;28350;-73
2021/05/30 03:58:59;;;;;;;7.57;6.07;;;8.10;99.90;;;;;;494151;241;27969;-73
2021/05/30 04:01:01;;;;;;;5.70;5.03;;;8.10;99.90;;;;;;494119;241;28105;-73
2021/05/30 04:03:02;;;;;;;6.73;4.77;;;8.00;99.90;;;;;;494155;241;27928;-73
2021/05/30 04:05:03;;;;;;;5.83;4.60;;;8.10;99.90;;;;;;494105;241;27862;-73
2021/05/30 04:07:04;;;;;;;5.60;4.50;;;8.10;99.90;;;;;;494141;237;28079;-74
2021/05/30 04:09:06;;;;;;;7.50;5.30;;;8.10;99.90;;;;;;494084;241;28386;-73
2021/05/30 04:11:07;;;;;;;6.80;4.80;;;8.10;99.90;;;;;;494039;241;28471;-74
2021/05/30 04:13:08;;;;;;;7.50;4.30;;;8.00;99.90;;;;;;494180;241;28407;-73
2021/05/30 04:15:09;;;;;;;5.80;4.50;;;8.00;99.90;;;;;;494132;241;28552;-73
2021/05/30 04:17:11;;;;;;;5.20;4.70;;;8.00;99.90;;;;;;493469;241;27994;-74
2021/05/30 04:19:12;;;;;;;5.40;4.90;;;8.10;99.90;;;;;;493891;241;27867;-73
2021/05/30 04:21:13;;;;;;;5.43;4.70;;;8.10;99.90;;;;;;494057;241;27974;-73
2021/05/30 04:23:14;;;;;;;6.23;5.63;;;8.10;99.90;;;;;;494106;241;27579;-73
2021/05/30 04:25:16;;;;;;;7.10;6.13;;;8.20;99.90;;;;;;494141;241;27961;-73
2021/05/30 04:27:17;;;;;;;8.20;5.63;;;8.20;99.90;;;;;;494129;241;27862;-74
2021/05/30 04:29:18;;;;;;;6.50;5.30;;;8.20;99.90;;;;;;494119;241;28000;-73
2021/05/30 04:31:19;;;;;;;5.73;5.23;;;8.30;99.90;;;;;;494104;241;28002;-73
2021/05/30 04:33:21;;;;;;;6.07;5.17;;;8.30;99.90;;;;;;494089;241;27946;-73
2021/05/30 04:35:22;;;;;;;9.13;5.80;;;8.40;99.90;;;;;;494041;237;28094;-73
2021/05/30 04:37:23;;;;;;;6.60;5.80;;;8.50;99.90;;;;;;494045;241;27714;-74
2021/05/30 04:39:26;;;;;;;9.93;7.40;;;8.50;99.90;;;;;;494165;241;28045;-73
2021/05/30 04:41:26;;;;;;;8.33;6.90;;;8.60;99.90;;;;;;494033;241;28157;-74
2021/05/30 04:43:27;;;;;;;6.20;5.57;;;8.70;99.90;;;;;;494168;241;28507;-73
2021/05/30 04:45:28;;;;;;;9.00;7.47;;;8.90;99.90;;;;;;494122;241;28451;-73
2021/05/30 04:47:29;;;;;;;10.73;7.90;;;9.00;99.90;;;;;;494058;241;29161;-72
2021/05/30 04:49:31;;;;;;;11.37;8.40;;;9.10;99.90;;;;;;494049;240;28394;-72
2021/05/30 04:51:32;;;;;;;15.03;8.40;;;9.20;99.90;;;;;;494124;241;28519;-73
2021/05/30 04:53:33;;;;;;;9.87;8.10;;;9.20;99.90;;;;;;494160;241;27949;-73
2021/05/30 04:55:34;;;;;;;12.83;8.20;;;9.30;99.90;;;;;;494175;241;27992;-73
2021/05/30 04:57:36;;;;;;;9.90;7.30;;;9.30;99.90;;;;;;494138;241;27857;-72
2021/05/30 04:59:37;;;;;;;9.77;7.67;;;9.40;99.90;;;;;;494184;241;27853;-73
2021/05/30 05:01:38;;;;;;;12.13;7.70;;;9.50;99.90;;;;;;494172;241;28095;-73
2021/05/30 05:03:39;;;;;;;10.20;7.20;;;9.50;99.90;;;;;;494155;241;28156;-73
2021/05/30 05:05:41;;;;;;;8.73;6.80;;;9.60;99.90;;;;;;494161;241;28130;-73
2021/05/30 05:07:43;;;;;;;7.83;6.37;;;9.60;99.90;;;;;;494145;241;27949;-72
2021/05/30 05:09:43;;;;;;;8.80;5.90;;;9.60;99.90;;;;;;494043;241;27978;-73
2021/05/30 05:11:44;;;;;;;9.00;6.60;;;9.70;99.90;;;;;;494113;241;28026;-74
2021/05/30 05:13:46;;;;;;;11.60;6.50;;;9.80;99.90;;;;;;494068;241;27921;-73
2021/05/30 05:15:47;;;;;;;9.50;6.83;;;9.80;99.90;;;;;;494032;241;28326;-73
2021/05/30 05:17:48;;;;;;;7.27;6.57;;;9.80;99.90;;;;;;494069;241;28407;-73
2021/05/30 05:19:50;;;;;;;7.43;6.53;;;9.90;99.90;;;;;;494039;241;28732;-73
2021/05/30 05:21:51;;;;;;;8.90;7.00;;;9.90;99.90;;;;;;494060;241;28408;-74
2021/05/30 05:23:52;;;;;;;8.07;6.70;;;10.00;99.90;;;;;;494166;241;28296;-73
2021/05/30 05:25:53;;;;;;;12.20;7.43;;;10.00;99.90;;;;;;494067;241;27865;-73
2021/05/30 05:27:54;;;;;;;9.43;7.50;;;10.00;99.90;;;;;;494037;241;28030;-73
2021/05/30 05:29:56;;;;;;;8.70;6.90;;;10.10;99.90;;;;;;494020;241;27857;-73
2021/05/30 05:31:57;;;;;;;8.43;6.40;;;10.20;99.90;;;;;;494132;237;28296;-73
2021/05/30 05:33:58;;;;;;;9.77;6.70;;;10.30;99.90;;;;;;494078;241;27939;-73
2021/05/30 05:35:59;;;;;;;7.87;6.80;;;10.30;99.90;;;;;;494078;241;28300;-73
2021/05/30 05:38:01;;;;;;;8.00;6.53;;;10.40;99.90;;;;;;494070;241;28089;-73
2021/05/30 05:40:02;;;;;;;9.33;6.93;;;10.50;99.90;;;;;;494070;241;27866;-73
2021/05/30 05:42:03;;;;;;;8.40;6.60;;;10.40;99.90;;;;;;494056;241;28491;-74
2021/05/30 05:44:04;;;;;;;8.33;7.07;;;10.50;99.90;;;;;;494097;241;28520;-73
2021/05/30 05:46:06;;;;;;;7.60;6.50;;;10.50;99.90;;;;;;494205;241;28456;-73
2021/05/30 05:48:07;;;;;;;7.50;6.53;;;10.50;99.90;;;;;;494157;241;27953;-73
2021/05/30 05:50:08;;;;;;;9.43;7.07;;;10.60;99.90;;;;;;494197;241;27949;-73
2021/05/30 05:52:09;;;;;;;9.47;7.07;;;10.70;99.90;;;;;;494104;241;28082;-73
2021/05/30 05:54:11;;;;;;;11.83;7.30;;;10.70;99.90;;;;;;494228;241;28130;-73
2021/05/30 05:56:12;;;;;;;8.67;7.00;;;10.70;99.90;;;;;;494048;241;27953;-73
2021/05/30 05:58:13;;;;;;;8.13;6.30;;;10.80;99.90;;;;;;494063;241;28084;-73
2021/05/30 06:00:15;;;;;;;8.23;6.87;;;10.90;99.90;;;;;;494041;241;28214;-73
2021/05/30 06:02:17;;;;;;;9.30;6.80;;;11.00;99.90;;;;;;494020;241;28181;-73
2021/05/30 06:04:17;;;;;;;7.67;6.87;;;11.10;99.90;;;;;;494063;241;28060;-73
2021/05/30 06:06:18;;;;;;;8.40;6.43;;;11.10;99.90;;;;;;494067;241;28557;-74
2021/05/30 06:08:21;;;;;;;7.30;6.10;;;;;;;;;;494087;241;28937;-73
2021/05/30 06:10:24;;;;;;;7.30;6.03;;;11.30;99.90;;;;;;494131;237;27146;-73
2021/05/30 06:12:23;;;;;;;5.97;5.20;;;11.40;99.90;;;;;;493932;241;28078;-73
2021/05/30 06:14:24;;;;;;;6.83;5.80;;;11.50;99.90;;;;;;494078;241;28437;-74
2021/05/30 06:16:26;;;;;;;7.70;5.90;;;11.50;99.90;;;;;;494087;241;28578;-73
2021/05/30 06:18:27;;;;;;;6.93;5.53;;;11.60;99.90;;;;;;494066;241;28897;-73
2021/05/30 06:20:28;;;;;;;8.23;5.60;;;11.60;99.90;;;;;;494087;241;29371;-73
2021/05/30 06:22:29;;;;;;;7.17;5.30;;;11.70;99.90;;;;;;494070;241;28732;-73
2021/05/30 06:24:31;;;;;;;5.90;4.97;;;11.80;99.90;;;;;;494068;241;28437;-74
2021/05/30 06:26:32;;;;;;;6.10;5.50;;;11.80;99.90;;;;;;494159;240;28354;-73
2021/05/30 06:28:33;;;;;;;5.43;4.90;;;12.00;99.90;;;;;;494185;241;28203;-75
2021/05/30 06:30:39;;;;;;;6.70;5.40;;;12.00;99.90;;;;;;494140;241;28187;-73
2021/05/30 06:32:36;;;;;;;6.57;5.60;;;12.00;99.90;;;;;;493545;241;28223;-74
2021/05/30 06:34:37;;;;;;;6.17;4.97;;;12.10;99.90;;;;;;494042;241;28431;-74
2021/05/30 06:36:39;;;;;;;6.23;5.27;;;12.10;99.90;;;;;;494076;241;28518;-73
2021/05/30 06:38:39;;;;;;;6.40;5.57;;;12.10;99.90;;;;;;494113;241;28452;-74
2021/05/30 06:40:41;;;;;;;4.93;4.43;;;12.20;99.90;;;;;;494183;241;28756;-73
2021/05/30 06:42:42;;;;;;;8.70;4.50;;;12.30;99.90;;;;;;494042;241;29138;-74
2021/05/30 06:44:43;;;;;;;4.90;4.50;;;12.40;99.90;;;;;;494066;241;28758;-74
2021/05/30 06:46:44;;;;;;;8.33;4.33;;;12.40;99.90;;;;;;494084;241;29000;-73
2021/05/30 06:48:46;;;;;;;5.13;4.60;;;12.40;99.90;;;;;;494093;241;28444;-73
2021/05/30 06:51:12;;;;;;;5.53;5.00;;;12.50;99.90;;;;;;494087;241;28927;-73
2021/05/30 06:52:48;;;;;;;6.10;4.47;;;12.60;99.90;;;;;;492321;241;28060;-72
2021/05/30 06:54:49;;;;;;;7.07;5.00;;;12.70;99.90;;;;;;494069;241;28671;-73
2021/05/30 06:56:51;;;;;;;5.80;4.33;;;12.80;99.90;;;;;;494099;241;28486;-74
2021/05/30 06:58:52;;;;;;;5.63;4.70;;;12.80;99.90;;;;;;494221;241;28616;-73
2021/05/30 07:00:53;;;;;;;7.33;4.67;;;12.90;99.90;;;;;;494144;241;28497;-75
2021/05/30 07:02:54;;;;;;;7.10;4.80;;;13.00;99.90;;;;;;494158;241;28452;-74
2021/05/30 07:04:56;;;;;;;5.73;4.70;;;13.00;99.90;;;;;;493955;241;28985;-73
2021/05/30 07:06:57;;;;;;;4.33;3.90;;;12.90;99.90;;;;;;493191;241;28816;-73
2021/05/30 07:08:58;;;;;;;5.83;4.77;;;13.00;99.90;;;;;;493500;241;28783;-74
2021/05/30 07:10:59;;;;;;;7.67;4.80;;;13.00;99.90;;;;;;493773;240;28512;-73
2021/05/30 07:13:01;;;;;;;4.73;4.33;;;13.00;99.90;;;;;;494180;241;28932;-74
2021/05/30 07:15:02;;;;;;;4.77;4.27;;;13.10;99.90;;;;;;494169;241;28298;-73
2021/05/30 07:17:03;;;;;;;5.57;4.90;;;13.20;99.90;;;;;;494157;241;28294;-73
2021/05/30 07:19:04;;;;;;;5.37;4.30;;;13.30;99.90;;;;;;494058;241;28441;-73
2021/05/30 07:21:06;;;;;;;4.30;3.90;;;13.20;99.90;;;;;;494151;237;28183;-74
2021/05/30 07:23:07;;;;;;;5.07;4.03;;;13.30;99.90;;;;;;494176;241;28219;-74
2021/05/30 07:25:08;;;;;;;5.10;4.33;;;13.40;99.90;;;;;;494065;241;28190;-73
2021/05/30 07:27:09;;;;;;;5.43;4.80;;;13.40;99.90;;;;;;494074;241;28684;-73
2021/05/30 07:29:11;;;;;;;4.50;4.10;;;13.40;99.90;;;;;;494059;237;28686;-74
2021/05/30 07:31:12;;;;;;;4.97;4.47;;;13.50;99.90;;;;;;494142;241;28743;-74
2021/05/30 07:33:13;;;;;;;3.97;3.53;;;13.70;99.90;;;;;;494141;241;28723;-74
2021/05/30 07:35:14;;;;;;;4.53;4.00;;;13.70;99.90;;;;;;494163;241;28216;-74
2021/05/30 07:37:16;;;;;;;4.90;3.80;;;13.80;99.90;;;;;;494193;241;28278;-73
2021/05/30 07:39:17;;;;;;;6.33;3.40;;;13.90;99.90;;;;;;494163;241;28209;-74
2021/05/30 07:41:19;;;;;;;7.10;3.97;;;13.90;99.90;;;;;;494181;241;28191;-73
2021/05/30 07:43:19;;;;;;;4.37;3.83;;;14.00;99.90;;;;;;494128;239;28318;-74
2021/05/30 07:45:21;;;;;;;3.60;3.30;;;14.00;99.90;;;;;;494187;241;28398;-73
2021/05/30 07:47:23;;;;;;;4.10;3.70;;;14.00;99.90;;;;;;494142;241;28322;-74
2021/05/30 07:49:23;;;;;;;4.10;3.37;;;13.90;99.90;;;;;;493909;239;28445;-73
2021/05/30 07:51:26;;;;;;;4.20;3.20;;;14.10;99.90;;;;;;494042;241;29064;-73
2021/05/30 07:53:26;;;;;;;4.30;3.33;;;14.30;99.90;;;;;;493969;241;28738;-74
2021/05/30 07:55:27;;;;;;;4.60;3.20;;;14.30;99.90;;;;;;494065;241;28934;-74
2021/05/30 07:57:29;;;;;;;5.60;3.20;;;14.30;99.90;;;;;;494072;241;28812;-73
2021/05/30 07:59:30;;;;;;;3.03;2.80;;;14.30;99.90;;;;;;494162;241;28231;-74
2021/05/30 08:01:31;;;;;;;3.10;2.90;;;14.40;99.90;;;;;;494076;241;28610;-75
2021/05/30 08:03:32;;;;;;;2.97;2.70;;;14.50;99.90;;;;;;494191;241;28537;-73
2021/05/30 08:05:34;;;;;;;3.67;2.93;;;14.50;99.90;;;;;;494150;241;28851;-74
2021/05/30 08:07:35;;;;;;;3.60;3.30;;;14.50;99.90;;;;;;494145;241;28872;-73
2021/05/30 08:09:36;;;;;;;4.53;3.37;;;14.60;99.90;;;;;;494199;241;28605;-73
2021/05/30 08:11:37;;;;;;;5.63;3.30;;;14.50;99.90;;;;;;494081;241;29364;-73
2021/05/30 08:13:39;;;;;;;3.13;2.83;;;14.60;99.90;;;;;;494079;241;29385;-73
2021/05/30 08:15:40;;;;;;;3.90;3.50;;;14.60;99.90;;;;;;494098;241;29139;-74
2021/05/30 08:17:43;;;;;;;3.00;2.80;;;14.80;99.90;;;;;;494061;241;28810;-73
2021/05/30 08:19:42;;;;;;;3.07;2.87;;;14.90;99.90;;;;;;493920;241;28853;-73
2021/05/30 08:21:44;;;;;;;3.80;3.27;;;14.90;99.90;;;;;;494095;241;28499;-74
2021/05/30 08:23:45;;;;;;;3.80;2.83;;;15.10;99.90;;;;;;494192;241;28911;-74
2021/05/30 08:25:46;;;;;;;3.23;3.03;;;14.90;99.90;;;;;;494172;241;28932;-74
2021/05/30 08:27:48;;;;;;;4.20;3.20;;;14.90;99.90;;;;;;494182;241;28471;-74
2021/05/30 08:29:49;;;;;;;4.63;3.13;;;15.10;99.90;;;;;;494050;241;28867;-73
2021/05/30 08:31:50;;;;;;;2.70;2.50;;;15.10;99.90;;;;;;494171;241;28558;-73
2021/05/30 08:33:51;;;;;;;3.30;3.00;;;14.90;99.90;;;;;;494160;241;28796;-74
2021/05/30 08:35:52;;;;;;;3.00;2.47;;;15.10;99.90;;;;;;494137;241;29462;-74
2021/05/30 08:37:54;;;;;;;4.63;3.00;;;15.00;99.90;;;;;;494203;241;29230;-74
2021/05/30 08:39:55;;;;;;;2.90;2.60;;;15.20;99.90;;;;;;494164;241;29400;-74
2021/05/30 08:41:56;;;;;;;3.37;2.90;;;15.40;99.90;;;;;;494177;241;28812;-73
2021/05/30 08:43:57;;;;;;;2.93;2.63;;;15.20;99.90;;;;;;494151;241;28830;-73
2021/05/30 08:45:59;;;;;;;3.23;2.70;;;15.50;99.90;;;;;;494135;237;28819;-74
2021/05/30 08:48:00;;;;;;;8.90;2.77;;;15.60;99.90;;;;;;494137;241;28829;-74
2021/05/30 08:50:01;;;;;;;2.70;2.50;;;15.60;99.90;;;;;;494160;241;28678;-74
2021/05/30 08:52:02;;;;;;;2.80;2.60;;;15.50;99.90;;;;;;494155;239;28820;-74
2021/05/30 08:54:04;;;;;;;4.10;2.60;;;15.50;99.90;;;;;;494161;237;28852;-74
2021/05/30 08:56:05;;;;;;;5.03;3.00;;;15.70;99.90;;;;;;494157;241;28806;-73
2021/05/30 08:58:06;;;;;;;2.80;2.60;;;15.60;99.90;;;;;;494137;241;28805;-73
2021/05/30 09:00:07;;;;;;;3.70;2.97;;;15.50;99.90;;;;;;494150;241;29392;-74
2021/05/30 09:02:13;;;;;;;4.37;2.93;;;15.50;99.90;;;;;;494035;241;29348;-74
2021/05/30 09:04:10;;;;;;;2.87;2.63;;;15.70;99.90;;;;;;493810;241;29422;-74
2021/05/30 09:06:11;;;;;;;2.93;2.60;;;15.70;99.90;;;;;;494164;241;28848;-73
2021/05/30 09:08:12;;;;;;;2.60;2.40;;;15.80;99.90;;;;;;494116;239;28816;-74
2021/05/30 09:10:14;;;;;;;3.43;2.93;;;16.00;99.90;;;;;;494131;241;28826;-74
2021/05/30 09:12:15;;;;;;;3.27;2.77;;;16.00;99.90;;;;;;494164;241;28808;-73
2021/05/30 09:14:18;;;;;;;4.53;3.00;;;15.90;99.90;;;;;;494068;241;28836;-73
2021/05/30 09:16:20;;;;;;;4.50;2.70;;;15.80;99.90;;;;;;494039;241;28835;-74
2021/05/30 09:18:19;;;;;;;3.20;2.43;;;15.90;99.90;;;;;;493878;241;28857;-73
2021/05/30 09:20:20;;;;;;;4.37;2.30;;;16.00;99.90;;;;;;494091;241;28879;-74
2021/05/30 09:22:21;;;;;;;3.30;2.93;;;15.90;99.90;;;;;;494095;241;28800;-74
2021/05/30 09:24:22;;;;;;;3.53;3.00;;;16.00;99.90;;;;;;494077;241;29391;-74
2021/05/30 09:26:24;;;;;;;2.87;2.57;;;16.10;99.90;;;;;;494146;241;29271;-73
2021/05/30 09:28:25;;;;;;;4.10;2.80;;;16.20;99.90;;;;;;493930;241;29639;-74
2021/05/30 09:30:26;;;;;;;3.30;3.00;;;16.30;99.90;;;;;;494027;241;28866;-76
2021/05/30 09:32:27;;;;;;;4.30;3.00;;;16.40;99.90;;;;;;494039;241;28801;-73
2021/05/30 09:34:29;;;;;;;4.83;2.53;;;16.30;99.90;;;;;;494003;241;28880;-75
2021/05/30 09:36:30;;;;;;;2.67;2.47;;;16.20;99.90;;;;;;494157;237;28925;-72
2021/05/30 09:38:32;;;;;;;2.60;2.40;;;16.20;99.90;;;;;;494128;241;28807;-73
2021/05/30 09:40:32;;;;;;;3.23;3.03;;;16.40;99.90;;;;;;494047;237;29181;-75
2021/05/30 09:42:36;;;;;;;2.90;2.60;;;16.50;99.90;;;;;;494096;241;28878;-75
2021/05/30 09:44:35;;;;;;;2.57;2.37;;;16.60;99.90;;;;;;493955;241;28931;-74
2021/05/30 09:46:36;;;;;;;8.93;2.60;;;16.70;99.90;;;;;;494066;237;28893;-74
2021/05/30 09:48:37;;;;;;;3.00;2.20;;;16.60;99.20;;;;;;494118;241;29301;-73
2021/05/30 09:50:39;;;;;;;2.43;2.10;;;16.50;95.00;;;;;;494082;241;29429;-75
2021/05/30 09:52:40;;;;;;;3.53;2.60;;;16.40;96.90;;;;;;494153;241;29313;-73
2021/05/30 09:54:41;;;;;;;2.57;2.37;;;16.40;98.70;;;;;;494134;241;28821;-74
2021/05/30 09:56:42;;;;;;;3.50;2.40;;;16.50;99.80;;;;;;494143;241;28791;-74
2021/05/30 09:58:44;;;;;;;3.80;2.70;;;16.50;99.90;;;;;;494151;237;28832;-73
2021/05/30 10:00:45;;;;;;;3.60;2.40;;;16.70;99.90;;;;;;494033;241;28831;-73
2021/05/30 10:02:46;;;;;;;2.50;2.27;;;16.90;99.10;;;;;;494072;241;28822;-73
2021/05/30 10:04:47;;;;;;;3.53;2.27;;;16.70;97.40;;;;;;494024;241;28848;-75
2021/05/30 10:06:49;;;;;;;2.73;2.53;;;16.70;98.40;;;;;;494150;241;28798;-72
2021/05/30 10:08:50;;;;;;;3.20;2.83;;;16.90;99.90;;;;;;494142;241;28931;-72
2021/05/30 10:10:51;;;;;;;2.30;2.10;;;16.90;99.90;;;;;;494071;237;28829;-75
2021/05/30 10:12:52;;;;;;;2.80;2.60;;;17.10;97.20;;;;;;494065;241;29404;-73
2021/05/30 10:14:54;;;;;;;2.73;2.23;;;17.00;98.10;;;;;;494042;241;29327;-74
2021/05/30 10:16:55;;;;;;;4.60;3.47;;;17.10;98.70;;;;;;494085;241;29264;-73
2021/05/30 10:18:56;;;;;;;2.40;2.20;;;17.10;98.50;;;;;;494070;241;28848;-74
2021/05/30 10:20:57;;;;;;;2.87;2.60;;;17.30;97.70;;;;;;494054;241;28823;-74
2021/05/30 10:22:59;;;;;;;4.07;2.80;;;17.20;99.10;;;;;;494060;241;28829;-75
2021/05/30 10:25:00;;;;;;;3.27;2.50;;;17.20;98.90;;;;;;494062;239;28829;-75
2021/05/30 10:27:01;;;;;;;2.90;2.60;;;17.30;97.40;;;;;;494087;241;28804;-75
2021/05/30 10:29:02;;;;;;;2.93;2.73;;;17.30;96.70;;;;;;494091;241;28942;-75
2021/05/30 10:31:04;;;;;;;2.47;2.30;;;17.40;97.40;;;;;;494077;241;28969;-75
2021/05/30 10:33:05;;;;;;;2.63;2.43;;;17.30;96.70;;;;;;494081;241;28798;-75
2021/05/30 10:35:06;;;;;;;3.40;2.90;;;17.40;99.60;;;;;;494105;239;28824;-75